sensor_id;sensor_type;location;lat;lon;timestamp;pressure;altitude;pressure_sealevel;temperature;humidity
46690;BME280;32423;45.398;10.874;2023-02-14T00:01:32;102726.44;;;13.01;48.74
46690;BME280;32423;45.398;10.874;2023-02-14T00:04:23;102724.50;;;13.01;48.89
46690;BME280;32423;45.398;10.874;2023-02-14T00:07:15;102719.63;;;12.98;49.10
46690;BME280;32423;45.398;10.874;2023-02-14T00:10:07;102722.59;;;13.02;49.32
46690;BME280;32423;45.398;10.874;2023-02-14T00:12:59;102721.53;;;12.98;49.30
46690;BME280;32423;45.398;10.874;2023-02-14T00:15:51;102717.72;;;12.99;49.46
46690;BME280;32423;45.398;10.874;2023-02-14T00:18:43;102721.78;;;13.01;49.37
46690;BME280;32423;45.398;10.874;2023-02-14T00:21:51;102714.97;;;13.04;49.34
46690;BME280;32423;45.398;10.874;2023-02-14T00:24:43;102720.94;;;13.06;49.54
46690;BME280;32423;45.398;10.874;2023-02-14T00:27:35;102713.88;;;13.05;49.46
46690;BME280;32423;45.398;10.874;2023-02-14T00:30:27;102714.97;;;13.04;49.21
46690;BME280;32423;45.398;10.874;2023-02-14T00:33:16;102708.94;;;13.02;48.98
46690;BME280;32423;45.398;10.874;2023-02-14T00:36:06;102709.25;;;13.00;48.75
46690;BME280;32423;45.398;10.874;2023-02-14T00:38:58;102708.44;;;13.00;48.99
46690;BME280;32423;45.398;10.874;2023-02-14T00:41:49;102700.50;;;12.98;49.08
46690;BME280;32423;45.398;10.874;2023-02-14T00:44:41;102701.84;;;13.01;49.28
46690;BME280;32423;45.398;10.874;2023-02-14T00:47:33;102698.59;;;12.99;49.11
46690;BME280;32423;45.398;10.874;2023-02-14T00:50:25;102695.63;;;12.90;49.11
46690;BME280;32423;45.398;10.874;2023-02-14T00:53:17;102692.13;;;12.84;49.07
46690;BME280;32423;45.398;10.874;2023-02-14T00:56:10;102689.41;;;12.84;49.05
46690;BME280;32423;45.398;10.874;2023-02-14T00:59:02;102690.19;;;12.85;49.31
46690;BME280;32423;45.398;10.874;2023-02-14T01:01:54;102685.81;;;12.89;49.27
46690;BME280;32423;45.398;10.874;2023-02-14T01:04:46;102685.00;;;12.89;49.04
46690;BME280;32423;45.398;10.874;2023-02-14T01:07:38;102686.91;;;12.88;49.17
46690;BME280;32423;45.398;10.874;2023-02-14T01:10:30;102681.19;;;12.90;49.30
46690;BME280;32423;45.398;10.874;2023-02-14T01:13:22;102688.56;;;12.89;49.39
46690;BME280;32423;45.398;10.874;2023-02-14T01:16:14;102671.59;;;12.92;49.67
46690;BME280;32423;45.398;10.874;2023-02-14T01:19:06;102666.41;;;12.91;49.65
46690;BME280;32423;45.398;10.874;2023-02-14T01:21:57;102665.31;;;12.92;49.48
46690;BME280;32423;45.398;10.874;2023-02-14T01:24:49;102660.94;;;12.91;49.76
46690;BME280;32423;45.398;10.874;2023-02-14T01:27:41;102657.13;;;12.92;49.85
46690;BME280;32423;45.398;10.874;2023-02-14T01:30:33;102654.97;;;12.89;50.08
46690;BME280;32423;45.398;10.874;2023-02-14T01:33:22;102656.31;;;12.91;49.71
46690;BME280;32423;45.398;10.874;2023-02-14T01:36:17;102657.69;;;12.89;49.26
46690;BME280;32423;45.398;10.874;2023-02-14T01:39:10;102652.84;;;12.75;49.21
46690;BME280;32423;45.398;10.874;2023-02-14T01:42:05;102639.22;;;12.70;49.09
46690;BME280;32423;45.398;10.874;2023-02-14T01:44:57;102632.41;;;12.73;49.33
46690;BME280;32423;45.398;10.874;2023-02-14T01:47:52;102622.59;;;12.72;49.25
46690;BME280;32423;45.398;10.874;2023-02-14T01:50:42;102631.88;;;12.71;48.84
46690;BME280;32423;45.398;10.874;2023-02-14T01:53:35;102627.25;;;12.66;48.39
46690;BME280;32423;45.398;10.874;2023-02-14T01:56:44;102626.44;;;12.66;49.13
46690;BME280;32423;45.398;10.874;2023-02-14T01:59:38;102617.97;;;12.67;50.12
46690;BME280;32423;45.398;10.874;2023-02-14T02:02:32;102614.97;;;12.69;50.19
46690;BME280;32423;45.398;10.874;2023-02-14T02:05:24;102603.22;;;12.68;49.60
46690;BME280;32423;45.398;10.874;2023-02-14T02:08:14;102598.88;;;12.67;49.53
46690;BME280;32423;45.398;10.874;2023-02-14T02:11:06;102588.28;;;12.56;49.55
46690;BME280;32423;45.398;10.874;2023-02-14T02:13:59;102585.28;;;12.57;49.58
46690;BME280;32423;45.398;10.874;2023-02-14T02:16:58;102586.41;;;12.51;49.47
46690;BME280;32423;45.398;10.874;2023-02-14T02:20:12;102580.69;;;12.53;49.44
46690;BME280;32423;45.398;10.874;2023-02-14T02:23:22;102576.88;;;12.49;49.49
46690;BME280;32423;45.398;10.874;2023-02-14T02:32:48;102569.56;;;12.44;49.67
46690;BME280;32423;45.398;10.874;2023-02-14T02:36:11;102566.28;;;12.42;49.40
46690;BME280;32423;45.398;10.874;2023-02-14T02:48:17;102566.75;;;12.54;50.57
46690;BME280;32423;45.398;10.874;2023-02-14T02:51:12;102569.50;;;12.54;50.53
46690;BME280;32423;45.398;10.874;2023-02-14T02:54:28;102569.75;;;12.53;49.94
46690;BME280;32423;45.398;10.874;2023-02-14T02:57:23;102558.03;;;12.52;50.01
46690;BME280;32423;45.398;10.874;2023-02-14T03:00:17;102556.13;;;12.53;50.20
46690;BME280;32423;45.398;10.874;2023-02-14T03:03:07;102563.47;;;12.57;50.12
46690;BME280;32423;45.398;10.874;2023-02-14T03:06:17;102558.56;;;12.54;50.18
46690;BME280;32423;45.398;10.874;2023-02-14T03:09:48;102560.75;;;12.52;50.39
46690;BME280;32423;45.398;10.874;2023-02-14T03:24:43;102557.06;;;12.33;49.05
46690;BME280;32423;45.398;10.874;2023-02-14T03:27:37;102558.44;;;12.30;49.17
46690;BME280;32423;45.398;10.874;2023-02-14T03:30:37;102558.47;;;12.20;49.13
46690;BME280;32423;45.398;10.874;2023-02-14T03:36:38;102559.88;;;12.18;49.53
46690;BME280;32423;45.398;10.874;2023-02-14T03:39:35;102574.34;;;12.18;49.40
46690;BME280;32423;45.398;10.874;2023-02-14T03:42:29;102566.41;;;12.17;49.31
46690;BME280;32423;45.398;10.874;2023-02-14T03:45:26;102572.16;;;12.15;49.22
46690;BME280;32423;45.398;10.874;2023-02-14T03:48:19;102577.91;;;12.14;49.09
46690;BME280;32423;45.398;10.874;2023-02-14T03:51:12;102577.94;;;12.09;48.93
46690;BME280;32423;45.398;10.874;2023-02-14T03:54:04;102594.28;;;12.09;49.01
46690;BME280;32423;45.398;10.874;2023-02-14T03:56:57;102599.78;;;11.98;48.30
46690;BME280;32423;45.398;10.874;2023-02-14T03:59:51;102589.44;;;11.85;47.17
46690;BME280;32423;45.398;10.874;2023-02-14T04:02:42;102596.81;;;11.70;46.48
46690;BME280;32423;45.398;10.874;2023-02-14T04:05:34;102592.75;;;11.67;47.42
46690;BME280;32423;45.398;10.874;2023-02-14T04:08:26;102589.22;;;11.67;47.89
46690;BME280;32423;45.398;10.874;2023-02-14T04:11:18;102587.59;;;11.55;46.92
46690;BME280;32423;45.398;10.874;2023-02-14T04:14:10;102590.56;;;11.59;48.18
46690;BME280;32423;45.398;10.874;2023-02-14T04:17:07;102588.41;;;11.61;48.17
46690;BME280;32423;45.398;10.874;2023-02-14T04:20:16;102585.91;;;11.70;48.90
46690;BME280;32423;45.398;10.874;2023-02-14T04:23:08;102598.47;;;11.76;49.36
46690;BME280;32423;45.398;10.874;2023-02-14T04:25:59;102582.38;;;11.74;49.17
46690;BME280;32423;45.398;10.874;2023-02-14T04:28:51;102579.13;;;11.72;48.70
46690;BME280;32423;45.398;10.874;2023-02-14T04:31:43;102580.75;;;11.63;47.45
46690;BME280;32423;45.398;10.874;2023-02-14T04:34:35;102579.69;;;11.49;46.95
46690;BME280;32423;45.398;10.874;2023-02-14T04:37:27;102572.91;;;11.41;46.76
46690;BME280;32423;45.398;10.874;2023-02-14T04:40:19;102572.63;;;11.33;47.32
46690;BME280;32423;45.398;10.874;2023-02-14T04:43:11;102575.09;;;11.29;46.56
46690;BME280;32423;45.398;10.874;2023-02-14T04:46:03;102575.66;;;11.36;48.16
46690;BME280;32423;45.398;10.874;2023-02-14T04:48:55;102577.56;;;11.26;47.70
46690;BME280;32423;45.398;10.874;2023-02-14T04:51:47;102572.13;;;11.21;47.45
46690;BME280;32423;45.398;10.874;2023-02-14T04:54:39;102568.31;;;11.11;47.16
46690;BME280;32423;45.398;10.874;2023-02-14T04:57:31;102570.22;;;11.21;48.44
46690;BME280;32423;45.398;10.874;2023-02-14T05:00:23;102570.22;;;11.26;48.96
46690;BME280;32423;45.398;10.874;2023-02-14T05:03:15;102573.75;;;11.32;49.32
46690;BME280;32423;45.398;10.874;2023-02-14T05:06:07;102565.03;;;11.35;49.64
46690;BME280;32423;45.398;10.874;2023-02-14T05:08:59;102566.66;;;11.36;48.97
46690;BME280;32423;45.398;10.874;2023-02-14T05:11:51;102561.22;;;11.31;48.45
46690;BME280;32423;45.398;10.874;2023-02-14T05:14:43;102560.16;;;11.27;48.75
46690;BME280;32423;45.398;10.874;2023-02-14T05:17:35;102563.38;;;11.29;49.45
46690;BME280;32423;45.398;10.874;2023-02-14T05:20:27;102580.81;;;11.23;48.72
46690;BME280;32423;45.398;10.874;2023-02-14T05:23:19;102579.75;;;11.13;47.25
46690;BME280;32423;45.398;10.874;2023-02-14T05:26:11;102584.66;;;10.96;46.41
46690;BME280;32423;45.398;10.874;2023-02-14T05:29:03;102584.09;;;10.94;47.15
46690;BME280;32423;45.398;10.874;2023-02-14T05:31:55;102587.09;;;10.93;47.92
46690;BME280;32423;45.398;10.874;2023-02-14T05:34:46;102581.13;;;10.91;48.47
46690;BME280;32423;45.398;10.874;2023-02-14T05:37:38;102580.56;;;10.94;49.03
46690;BME280;32423;45.398;10.874;2023-02-14T05:40:30;102588.72;;;10.94;48.74
46690;BME280;32423;45.398;10.874;2023-02-14T05:43:22;102586.81;;;10.94;49.06
46690;BME280;32423;45.398;10.874;2023-02-14T05:46:14;102596.06;;;10.98;49.80
46690;BME280;32423;45.398;10.874;2023-02-14T05:49:06;102608.34;;;10.91;49.08
46690;BME280;32423;45.398;10.874;2023-02-14T05:51:58;102599.34;;;10.90;49.47
46690;BME280;32423;45.398;10.874;2023-02-14T05:54:50;102611.31;;;10.94;49.72
46690;BME280;32423;45.398;10.874;2023-02-14T05:57:42;102614.31;;;10.93;49.49
46690;BME280;32423;45.398;10.874;2023-02-14T06:00:34;102614.03;;;10.94;49.72
46690;BME280;32423;45.398;10.874;2023-02-14T06:03:26;102618.41;;;10.95;49.80
46690;BME280;32423;45.398;10.874;2023-02-14T06:06:17;102616.78;;;10.94;50.03
46690;BME280;32423;45.398;10.874;2023-02-14T06:09:09;102610.50;;;11.04;51.83
46690;BME280;32423;45.398;10.874;2023-02-14T06:12:01;102610.25;;;10.90;49.98
46690;BME280;32423;45.398;10.874;2023-02-14T06:14:53;102606.97;;;10.88;50.13
46690;BME280;32423;45.398;10.874;2023-02-14T06:17:45;102607.75;;;10.79;48.63
46690;BME280;32423;45.398;10.874;2023-02-14T06:20:40;102611.56;;;10.67;48.11
46690;BME280;32423;45.398;10.874;2023-02-14T06:23:32;102609.91;;;10.46;47.47
46690;BME280;32423;45.398;10.874;2023-02-14T06:26:24;102607.63;;;10.23;48.33
46690;BME280;32423;45.398;10.874;2023-02-14T06:29:16;102606.47;;;10.09;48.30
46690;BME280;32423;45.398;10.874;2023-02-14T06:32:08;102609.34;;;9.87;47.46
46690;BME280;32423;45.398;10.874;2023-02-14T06:35:00;102614.50;;;9.88;48.03
46690;BME280;32423;45.398;10.874;2023-02-14T06:37:52;102614.81;;;9.97;48.72
46690;BME280;32423;45.398;10.874;2023-02-14T06:40:44;102615.63;;;9.93;48.30
46690;BME280;32423;45.398;10.874;2023-02-14T06:43:36;102615.91;;;10.01;48.33
46690;BME280;32423;45.398;10.874;2023-02-14T06:46:28;102617.91;;;10.16;50.36
46690;BME280;32423;45.398;10.874;2023-02-14T06:49:20;102614.44;;;10.25;51.43
46690;BME280;32423;45.398;10.874;2023-02-14T06:52:12;102620.97;;;10.29;51.59
46690;BME280;32423;45.398;10.874;2023-02-14T06:55:03;102622.84;;;10.19;50.57
46690;BME280;32423;45.398;10.874;2023-02-14T06:57:55;102625.75;;;10.12;51.20
46690;BME280;32423;45.398;10.874;2023-02-14T07:00:47;102624.78;;;10.28;52.98
46690;BME280;32423;45.398;10.874;2023-02-14T07:03:40;102622.22;;;10.12;50.83
46690;BME280;32423;45.398;10.874;2023-02-14T07:06:32;102622.03;;;10.23;51.72
46690;BME280;32423;45.398;10.874;2023-02-14T07:09:24;102632.53;;;10.05;49.69
46690;BME280;32423;45.398;10.874;2023-02-14T07:12:16;102636.31;;;10.04;49.84
46690;BME280;32423;45.398;10.874;2023-02-14T07:15:08;102630.91;;;10.04;50.29
46690;BME280;32423;45.398;10.874;2023-02-14T07:18:00;102629.47;;;9.91;49.39
46690;BME280;32423;45.398;10.874;2023-02-14T07:20:52;102637.16;;;9.62;49.07
46690;BME280;32423;45.398;10.874;2023-02-14T07:23:42;102631.22;;;9.70;49.62
46690;BME280;32423;45.398;10.874;2023-02-14T07:26:35;102629.34;;;9.71;49.12
46690;BME280;32423;45.398;10.874;2023-02-14T07:29:27;102631.78;;;9.67;49.13
46690;BME280;32423;45.398;10.874;2023-02-14T07:32:19;102625.47;;;9.62;49.02
46690;BME280;32423;45.398;10.874;2023-02-14T07:35:11;102626.13;;;9.74;49.83
46690;BME280;32423;45.398;10.874;2023-02-14T07:38:03;102622.31;;;9.75;50.09
46690;BME280;32423;45.398;10.874;2023-02-14T07:40:53;102619.03;;;9.73;50.12
46690;BME280;32423;45.398;10.874;2023-02-14T07:43:45;102622.91;;;9.87;52.46
46690;BME280;32423;45.398;10.874;2023-02-14T07:46:36;102614.75;;;9.87;51.99
46690;BME280;32423;45.398;10.874;2023-02-14T07:49:28;102612.16;;;10.07;54.68
46690;BME280;32423;45.398;10.874;2023-02-14T07:52:20;102618.25;;;10.24;56.71
46690;BME280;32423;45.398;10.874;2023-02-14T07:55:12;102616.47;;;10.03;52.37
46690;BME280;32423;45.398;10.874;2023-02-14T07:58:04;102615.84;;;9.86;51.41
46690;BME280;32423;45.398;10.874;2023-02-14T08:00:56;102625.09;;;9.85;51.25
46690;BME280;32423;45.398;10.874;2023-02-14T08:03:48;102628.47;;;10.07;54.38
46690;BME280;32423;45.398;10.874;2023-02-14T08:06:40;102622.59;;;10.20;56.03
46690;BME280;32423;45.398;10.874;2023-02-14T08:09:29;102630.78;;;10.31;56.94
46690;BME280;32423;45.398;10.874;2023-02-14T08:12:21;102625.88;;;10.38;57.15
46690;BME280;32423;45.398;10.874;2023-02-14T08:15:27;102616.66;;;10.44;57.57
46690;BME280;32423;45.398;10.874;2023-02-14T08:18:36;102611.00;;;10.50;57.78
46690;BME280;32423;45.398;10.874;2023-02-14T08:21:28;102619.63;;;10.32;54.01
46690;BME280;32423;45.398;10.874;2023-02-14T08:24:20;102611.16;;;10.23;53.47
46690;BME280;32423;45.398;10.874;2023-02-14T08:27:12;102612.84;;;10.35;55.21
46690;BME280;32423;45.398;10.874;2023-02-14T08:30:04;102610.91;;;10.25;53.30
46690;BME280;32423;45.398;10.874;2023-02-14T08:32:57;102617.66;;;10.17;52.94
46690;BME280;32423;45.398;10.874;2023-02-14T08:35:49;102620.31;;;10.12;52.56
46690;BME280;32423;45.398;10.874;2023-02-14T08:38:41;102621.41;;;10.11;52.43
46690;BME280;32423;45.398;10.874;2023-02-14T08:41:33;102613.25;;;10.11;52.25
46690;BME280;32423;45.398;10.874;2023-02-14T08:44:25;102613.78;;;10.08;51.85
46690;BME280;32423;45.398;10.874;2023-02-14T08:47:17;102610.50;;;10.06;51.89
46690;BME280;32423;45.398;10.874;2023-02-14T08:50:09;102612.16;;;10.07;51.64
46690;BME280;32423;45.398;10.874;2023-02-14T08:53:03;102613.25;;;10.11;51.51
46690;BME280;32423;45.398;10.874;2023-02-14T08:55:53;102614.63;;;10.14;51.06
46690;BME280;32423;45.398;10.874;2023-02-14T08:58:45;102621.44;;;10.16;51.28
46690;BME280;32423;45.398;10.874;2023-02-14T09:01:35;102614.13;;;10.17;51.36
46690;BME280;32423;45.398;10.874;2023-02-14T09:04:24;102611.41;;;10.17;51.75
46690;BME280;32423;45.398;10.874;2023-02-14T09:07:16;102608.16;;;10.20;51.87
46690;BME280;32423;45.398;10.874;2023-02-14T09:10:08;102611.41;;;10.22;52.33
46690;BME280;32423;45.398;10.874;2023-02-14T09:13:00;102610.63;;;10.26;52.36
46690;BME280;32423;45.398;10.874;2023-02-14T09:15:49;102607.63;;;10.28;52.67
46690;BME280;32423;45.398;10.874;2023-02-14T09:18:41;102609.03;;;10.31;52.79
46690;BME280;32423;45.398;10.874;2023-02-14T09:21:31;102609.56;;;10.33;53.05
46690;BME280;32423;45.398;10.874;2023-02-14T09:24:23;102599.53;;;10.38;53.03
46690;BME280;32423;45.398;10.874;2023-02-14T09:27:15;102595.72;;;10.39;53.17
46690;BME280;32423;45.398;10.874;2023-02-14T09:30:07;102592.19;;;10.44;53.40
46690;BME280;32423;45.398;10.874;2023-02-14T09:32:59;102596.56;;;10.45;53.69
46690;BME280;32423;45.398;10.874;2023-02-14T09:35:49;102601.44;;;10.48;53.57
46690;BME280;32423;45.398;10.874;2023-02-14T09:38:39;102591.13;;;10.50;53.82
46690;BME280;32423;45.398;10.874;2023-02-14T09:41:35;102584.88;;;10.54;53.77
46690;BME280;32423;45.398;10.874;2023-02-14T09:47:39;102573.19;;;10.64;54.29
46690;BME280;32423;45.398;10.874;2023-02-14T09:50:39;102569.13;;;10.66;54.14
46690;BME280;32423;45.398;10.874;2023-02-14T09:53:36;102572.13;;;10.70;54.23
46690;BME280;32423;45.398;10.874;2023-02-14T09:56:31;102574.28;;;10.73;54.37
46690;BME280;32423;45.398;10.874;2023-02-14T10:02:36;102568.84;;;10.73;54.18
46690;BME280;32423;45.398;10.874;2023-02-14T10:05:28;102567.22;;;10.77;54.69
46690;BME280;32423;45.398;10.874;2023-02-14T10:11:33;102558.25;;;11.12;57.36
46690;BME280;32423;45.398;10.874;2023-02-14T10:14:26;102552.25;;;11.25;56.88
46690;BME280;32423;45.398;10.874;2023-02-14T10:17:18;102548.41;;;11.31;56.63
46690;BME280;32423;45.398;10.874;2023-02-14T10:23:28;102556.25;;;11.53;56.66
46690;BME280;32423;45.398;10.874;2023-02-14T10:26:18;102544.00;;;11.61;56.29
46690;BME280;32423;45.398;10.874;2023-02-14T10:29:14;102543.41;;;11.74;56.62
46690;BME280;32423;45.398;10.874;2023-02-14T10:32:04;102534.44;;;11.78;56.44
46690;BME280;32423;45.398;10.874;2023-02-14T10:35:01;102531.69;;;11.83;55.97
46690;BME280;32423;45.398;10.874;2023-02-14T10:38:04;102524.56;;;11.87;54.77
46690;BME280;32423;45.398;10.874;2023-02-14T10:43:52;102516.06;;;11.94;54.99
46690;BME280;32423;45.398;10.874;2023-02-14T10:46:58;102516.34;;;11.97;55.02
46690;BME280;32423;45.398;10.874;2023-02-14T10:50:09;102514.13;;;11.99;54.32
46690;BME280;32423;45.398;10.874;2023-02-14T10:53:05;102511.94;;;12.07;55.02
46690;BME280;32423;45.398;10.874;2023-02-14T10:56:00;102507.00;;;12.14;54.55
46690;BME280;32423;45.398;10.874;2023-02-14T10:58:51;102506.38;;;12.22;54.02
46690;BME280;32423;45.398;10.874;2023-02-14T11:01:45;102504.69;;;12.31;53.17
46690;BME280;32423;45.398;10.874;2023-02-14T11:04:37;102495.91;;;12.39;52.02
46690;BME280;32423;45.398;10.874;2023-02-14T11:07:29;102489.91;;;12.37;50.89
46690;BME280;32423;45.398;10.874;2023-02-14T11:10:21;102478.72;;;12.38;51.16
46690;BME280;32423;45.398;10.874;2023-02-14T11:13:25;102481.63;;;12.52;53.91
46690;BME280;32423;45.398;10.874;2023-02-14T11:16:30;102479.47;;;12.49;52.50
46690;BME280;32423;45.398;10.874;2023-02-14T11:19:35;102475.63;;;12.50;52.83
46690;BME280;32423;45.398;10.874;2023-02-14T11:22:30;102466.53;;;12.60;52.76
46690;BME280;32423;45.398;10.874;2023-02-14T11:25:23;102459.94;;;12.66;51.87
46690;BME280;32423;45.398;10.874;2023-02-14T11:28:15;102454.19;;;12.67;51.41
46690;BME280;32423;45.398;10.874;2023-02-14T11:31:09;102449.47;;;12.78;52.07
46690;BME280;32423;45.398;10.874;2023-02-14T11:34:02;102457.34;;;12.84;52.40
46690;BME280;32423;45.398;10.874;2023-02-14T11:36:55;102441.75;;;12.85;52.41
46690;BME280;32423;45.398;10.874;2023-02-14T11:39:47;102444.69;;;12.94;53.01
46690;BME280;32423;45.398;10.874;2023-02-14T11:45:29;102438.56;;;13.02;51.61
46690;BME280;32423;45.398;10.874;2023-02-14T11:48:24;102432.78;;;13.08;50.42
46690;BME280;32423;45.398;10.874;2023-02-14T11:51:16;102427.56;;;13.12;51.41
46690;BME280;32423;45.398;10.874;2023-02-14T11:54:09;102429.91;;;13.23;51.50
46690;BME280;32423;45.398;10.874;2023-02-14T12:00:16;102395.13;;;15.42;41.27
46690;BME280;32423;45.398;10.874;2023-02-14T12:03:14;102397.41;;;15.90;38.02
46690;BME280;32423;45.398;10.874;2023-02-14T12:06:08;102389.00;;;16.08;38.31
46690;BME280;32423;45.398;10.874;2023-02-14T12:09:15;102391.59;;;16.13;37.90
46690;BME280;32423;45.398;10.874;2023-02-14T12:12:21;102388.97;;;16.31;36.15
46690;BME280;32423;45.398;10.874;2023-02-14T12:15:33;102379.19;;;16.38;36.47
46690;BME280;32423;45.398;10.874;2023-02-14T12:22:32;102364.88;;;16.50;37.25
46690;BME280;32423;45.398;10.874;2023-02-14T12:28:17;102356.81;;;16.84;35.91
46690;BME280;32423;45.398;10.874;2023-02-14T12:31:10;102348.47;;;16.98;37.23
46690;BME280;32423;45.398;10.874;2023-02-14T12:34:02;102349.63;;;17.05;36.27
46690;BME280;32423;45.398;10.874;2023-02-14T12:40:09;102338.34;;;17.16;36.17
46690;BME280;32423;45.398;10.874;2023-02-14T12:55:14;102307.91;;;15.58;37.71
46690;BME280;32423;45.398;10.874;2023-02-14T13:10:10;102295.28;;;16.23;35.96
46690;BME280;32423;45.398;10.874;2023-02-14T13:15:58;102279.41;;;19.67;30.83
46690;BME280;32423;45.398;10.874;2023-02-14T13:21:51;102264.09;;;18.02;32.65
46690;BME280;32423;45.398;10.874;2023-02-14T13:24:45;102261.66;;;16.18;35.01
46690;BME280;32423;45.398;10.874;2023-02-14T13:27:37;102263.00;;;15.98;35.53
46690;BME280;32423;45.398;10.874;2023-02-14T13:30:29;102257.19;;;15.69;36.05
46690;BME280;32423;45.398;10.874;2023-02-14T13:36:13;102252.50;;;16.00;36.01
46690;BME280;32423;45.398;10.874;2023-02-14T13:39:03;102251.53;;;16.27;35.76
46690;BME280;32423;45.398;10.874;2023-02-14T13:41:56;102245.94;;;16.41;35.84
46690;BME280;32423;45.398;10.874;2023-02-14T13:44:48;102240.66;;;16.13;35.78
46690;BME280;32423;45.398;10.874;2023-02-14T13:47:41;102241.72;;;16.35;35.44
46690;BME280;32423;45.398;10.874;2023-02-14T13:50:30;102240.06;;;16.25;35.39
46690;BME280;32423;45.398;10.874;2023-02-14T13:56:32;102241.28;;;16.10;35.49
46690;BME280;32423;45.398;10.874;2023-02-14T13:59:33;102237.91;;;16.13;35.63
46690;BME280;32423;45.398;10.874;2023-02-14T14:02:29;102230.59;;;16.40;35.29
46690;BME280;32423;45.398;10.874;2023-02-14T14:11:12;102224.31;;;16.08;35.19
46690;BME280;32423;45.398;10.874;2023-02-14T14:16:59;102226.28;;;16.16;35.67
46690;BME280;32423;45.398;10.874;2023-02-14T14:19:51;102213.47;;;16.43;35.88
46690;BME280;32423;45.398;10.874;2023-02-14T14:22:45;102214.16;;;16.57;35.50
46690;BME280;32423;45.398;10.874;2023-02-14T14:25:37;102217.88;;;16.52;34.94
46690;BME280;32423;45.398;10.874;2023-02-14T14:28:30;102211.56;;;16.52;35.78
46690;BME280;32423;45.398;10.874;2023-02-14T14:31:22;102214.16;;;16.57;35.86
46690;BME280;32423;45.398;10.874;2023-02-14T14:34:21;102207.50;;;16.41;36.15
46690;BME280;32423;45.398;10.874;2023-02-14T14:37:14;102206.50;;;16.37;36.15
46690;BME280;32423;45.398;10.874;2023-02-14T14:40:16;102210.19;;;16.23;36.08
46690;BME280;32423;45.398;10.874;2023-02-14T14:46:27;102203.59;;;16.33;36.47
46690;BME280;32423;45.398;10.874;2023-02-14T14:49:19;102209.63;;;16.04;36.15
46690;BME280;32423;45.398;10.874;2023-02-14T14:52:16;102202.69;;;16.07;36.46
46690;BME280;32423;45.398;10.874;2023-02-14T14:55:17;102198.16;;;16.11;36.77
46690;BME280;32423;45.398;10.874;2023-02-14T14:58:28;102198.28;;;15.97;36.70
46690;BME280;32423;45.398;10.874;2023-02-14T15:04:27;102186.72;;;15.78;36.41
46690;BME280;32423;45.398;10.874;2023-02-14T15:07:19;102194.81;;;15.83;36.63
46690;BME280;32423;45.398;10.874;2023-02-14T15:13:36;102193.53;;;15.58;37.30
46690;BME280;32423;45.398;10.874;2023-02-14T15:16:42;102188.22;;;15.62;37.49
46690;BME280;32423;45.398;10.874;2023-02-14T15:19:35;102180.81;;;15.62;37.52
46690;BME280;32423;45.398;10.874;2023-02-14T15:22:29;102177.41;;;15.57;37.49
46690;BME280;32423;45.398;10.874;2023-02-14T15:25:20;102189.47;;;15.56;37.59
46690;BME280;32423;45.398;10.874;2023-02-14T15:28:16;102186.91;;;15.37;38.18
46690;BME280;32423;45.398;10.874;2023-02-14T15:31:17;102176.00;;;15.46;38.63
46690;BME280;32423;45.398;10.874;2023-02-14T15:34:08;102178.03;;;15.54;38.49
46690;BME280;32423;45.398;10.874;2023-02-14T15:37:01;102179.78;;;15.36;38.66
46690;BME280;32423;45.398;10.874;2023-02-14T15:39:54;102174.56;;;15.26;38.99
46690;BME280;32423;45.398;10.874;2023-02-14T15:42:46;102180.09;;;15.12;39.16
46690;BME280;32423;45.398;10.874;2023-02-14T15:45:38;102180.53;;;15.06;39.46
46690;BME280;32423;45.398;10.874;2023-02-14T15:48:34;102175.69;;;14.89;39.77
46690;BME280;32423;45.398;10.874;2023-02-14T15:51:28;102176.91;;;14.96;40.05
46690;BME280;32423;45.398;10.874;2023-02-14T15:54:20;102174.75;;;15.07;40.03
46690;BME280;32423;45.398;10.874;2023-02-14T15:57:21;102173.78;;;14.89;40.42
46690;BME280;32423;45.398;10.874;2023-02-14T16:00:17;102179.69;;;14.83;40.45
46690;BME280;32423;45.398;10.874;2023-02-14T16:03:10;102166.75;;;14.61;40.77
46690;BME280;32423;45.398;10.874;2023-02-14T16:06:03;102169.00;;;14.45;41.35
46690;BME280;32423;45.398;10.874;2023-02-14T16:08:53;102179.03;;;14.50;41.14
46690;BME280;32423;45.398;10.874;2023-02-14T16:11:45;102167.06;;;14.46;41.37
46690;BME280;32423;45.398;10.874;2023-02-14T16:14:36;102169.91;;;14.41;41.70
46690;BME280;32423;45.398;10.874;2023-02-14T16:17:33;102173.25;;;14.51;41.40
46690;BME280;32423;45.398;10.874;2023-02-14T16:20:36;102165.81;;;14.25;41.99
46690;BME280;32423;45.398;10.874;2023-02-14T16:23:29;102172.50;;;14.19;42.22
46690;BME280;32423;45.398;10.874;2023-02-14T16:26:20;102176.03;;;14.33;41.78
46690;BME280;32423;45.398;10.874;2023-02-14T16:29:12;102176.56;;;14.48;41.50
46690;BME280;32423;45.398;10.874;2023-02-14T16:32:12;102175.97;;;14.65;41.17
46690;BME280;32423;45.398;10.874;2023-02-14T16:35:04;102172.50;;;14.60;41.01
46690;BME280;32423;45.398;10.874;2023-02-14T16:37:56;102179.41;;;14.43;41.43
46690;BME280;32423;45.398;10.874;2023-02-14T16:40:50;102177.72;;;14.47;41.43
46690;BME280;32423;45.398;10.874;2023-02-14T16:43:44;102177.59;;;14.66;41.02
46690;BME280;32423;45.398;10.874;2023-02-14T16:46:36;102184.91;;;14.43;41.22
46690;BME280;32423;45.398;10.874;2023-02-14T16:49:28;102190.38;;;14.43;41.31
46690;BME280;32423;45.398;10.874;2023-02-14T16:52:17;102186.53;;;14.44;41.38
46690;BME280;32423;45.398;10.874;2023-02-14T16:55:15;102188.13;;;14.59;40.91